sensor_id;sensor_type;location;lat;lon;timestamp;P1;durP1;ratioP1;P2;durP2;ratioP2
11943;SDS011;6031;50.220;10.122;2023-08-06T00:02:22;2.33;;;2.07;;
11943;SDS011;6031;50.220;10.122;2023-08-06T00:04:48;2.30;;;2.20;;
11943;SDS011;6031;50.220;10.122;2023-08-06T00:07:13;2.00;;;1.90;;
11943;SDS011;6031;50.220;10.122;2023-08-06T00:09:39;2.60;;;2.40;;
11943;SDS011;6031;50.220;10.122;2023-08-06T00:12:04;2.00;;;1.90;;
11943;SDS011;6031;50.220;10.122;2023-08-06T00:14:30;2.23;;;2.10;;
11943;SDS011;6031;50.220;10.122;2023-08-06T00:16:56;4.27;;;2.03;;
11943;SDS011;6031;50.220;10.122;2023-08-06T00:19:21;2.40;;;2.20;;
11943;SDS011;6031;50.220;10.122;2023-08-06T00:21:46;2.90;;;2.60;;
11943;SDS011;6031;50.220;10.122;2023-08-06T00:24:12;4.13;;;2.70;;
11943;SDS011;6031;50.220;10.122;2023-08-06T00:26:38;3.23;;;2.93;;
11943;SDS011;6031;50.220;10.122;2023-08-06T00:29:03;2.83;;;2.40;;
11943;SDS011;6031;50.220;10.122;2023-08-06T00:31:29;5.10;;;2.77;;
11943;SDS011;6031;50.220;10.122;2023-08-06T00:33:54;3.33;;;2.60;;
11943;SDS011;6031;50.220;10.122;2023-08-06T00:36:20;2.50;;;2.30;;
11943;SDS011;6031;50.220;10.122;2023-08-06T00:38:45;2.30;;;2.10;;
11943;SDS011;6031;50.220;10.122;2023-08-06T00:41:11;2.43;;;2.20;;
11943;SDS011;6031;50.220;10.122;2023-08-06T00:43:36;2.50;;;2.30;;
11943;SDS011;6031;50.220;10.122;2023-08-06T00:46:02;2.90;;;2.10;;
11943;SDS011;6031;50.220;10.122;2023-08-06T00:48:27;2.17;;;1.97;;
11943;SDS011;6031;50.220;10.122;2023-08-06T00:50:53;2.20;;;2.00;;
11943;SDS011;6031;50.220;10.122;2023-08-06T00:53:18;3.17;;;2.97;;
11943;SDS011;6031;50.220;10.122;2023-08-06T00:55:44;2.60;;;2.40;;
11943;SDS011;6031;50.220;10.122;2023-08-06T00:58:10;2.40;;;2.30;;
11943;SDS011;6031;50.220;10.122;2023-08-06T01:00:37;4.53;;;2.57;;
11943;SDS011;6031;50.220;10.122;2023-08-06T01:03:03;2.13;;;1.93;;
11943;SDS011;6031;50.220;10.122;2023-08-06T01:05:28;2.10;;;1.97;;
11943;SDS011;6031;50.220;10.122;2023-08-06T01:08:10;3.00;;;2.37;;
11943;SDS011;6031;50.220;10.122;2023-08-06T01:13:46;2.50;;;2.27;;
11943;SDS011;6031;50.220;10.122;2023-08-06T01:16:17;3.70;;;2.97;;
11943;SDS011;6031;50.220;10.122;2023-08-06T01:22:00;3.17;;;2.57;;
11943;SDS011;6031;50.220;10.122;2023-08-06T01:24:26;2.83;;;2.63;;
11943;SDS011;6031;50.220;10.122;2023-08-06T01:26:57;2.60;;;2.40;;
11943;SDS011;6031;50.220;10.122;2023-08-06T01:29:44;2.47;;;2.30;;
11943;SDS011;6031;50.220;10.122;2023-08-06T01:32:17;2.90;;;2.70;;
11943;SDS011;6031;50.220;10.122;2023-08-06T01:34:45;2.17;;;2.07;;
11943;SDS011;6031;50.220;10.122;2023-08-06T01:37:12;2.97;;;2.63;;
11943;SDS011;6031;50.220;10.122;2023-08-06T01:39:37;3.00;;;2.70;;
11943;SDS011;6031;50.220;10.122;2023-08-06T01:42:07;2.23;;;2.03;;
11943;SDS011;6031;50.220;10.122;2023-08-06T01:44:33;3.47;;;2.57;;
11943;SDS011;6031;50.220;10.122;2023-08-06T01:46:58;2.93;;;2.67;;
11943;SDS011;6031;50.220;10.122;2023-08-06T01:49:24;2.83;;;2.07;;
11943;SDS011;6031;50.220;10.122;2023-08-06T01:51:49;2.80;;;2.57;;
11943;SDS011;6031;50.220;10.122;2023-08-06T01:54:15;2.73;;;2.53;;
11943;SDS011;6031;50.220;10.122;2023-08-06T01:56:41;3.77;;;2.73;;
11943;SDS011;6031;50.220;10.122;2023-08-06T01:59:06;2.90;;;2.70;;
11943;SDS011;6031;50.220;10.122;2023-08-06T02:01:32;4.87;;;2.93;;
11943;SDS011;6031;50.220;10.122;2023-08-06T02:03:57;4.60;;;3.53;;
11943;SDS011;6031;50.220;10.122;2023-08-06T02:06:22;3.20;;;3.00;;
11943;SDS011;6031;50.220;10.122;2023-08-06T02:08:48;3.13;;;2.93;;
11943;SDS011;6031;50.220;10.122;2023-08-06T02:11:13;6.90;;;2.80;;
11943;SDS011;6031;50.220;10.122;2023-08-06T02:13:39;3.63;;;3.33;;
11943;SDS011;6031;50.220;10.122;2023-08-06T02:16:06;3.03;;;2.83;;
11943;SDS011;6031;50.220;10.122;2023-08-06T02:18:33;3.67;;;2.67;;
11943;SDS011;6031;50.220;10.122;2023-08-06T02:20:59;3.13;;;2.47;;
11943;SDS011;6031;50.220;10.122;2023-08-06T02:23:24;4.00;;;2.90;;
11943;SDS011;6031;50.220;10.122;2023-08-06T02:26:24;2.60;;;2.50;;
11943;SDS011;6031;50.220;10.122;2023-08-06T02:28:42;2.73;;;2.40;;
11943;SDS011;6031;50.220;10.122;2023-08-06T02:31:08;2.87;;;2.67;;
11943;SDS011;6031;50.220;10.122;2023-08-06T02:33:33;3.23;;;3.03;;
11943;SDS011;6031;50.220;10.122;2023-08-06T02:35:59;3.40;;;3.10;;
11943;SDS011;6031;50.220;10.122;2023-08-06T02:38:29;3.23;;;2.93;;
11943;SDS011;6031;50.220;10.122;2023-08-06T02:40:55;3.30;;;3.00;;
11943;SDS011;6031;50.220;10.122;2023-08-06T02:43:20;3.13;;;2.83;;
11943;SDS011;6031;50.220;10.122;2023-08-06T02:45:46;2.80;;;2.60;;
11943;SDS011;6031;50.220;10.122;2023-08-06T02:48:11;2.97;;;2.77;;
11943;SDS011;6031;50.220;10.122;2023-08-06T02:50:40;3.10;;;2.77;;
11943;SDS011;6031;50.220;10.122;2023-08-06T02:53:07;2.87;;;2.67;;
11943;SDS011;6031;50.220;10.122;2023-08-06T02:55:33;2.93;;;2.70;;
11943;SDS011;6031;50.220;10.122;2023-08-06T02:58:00;2.87;;;2.67;;
11943;SDS011;6031;50.220;10.122;2023-08-06T03:00:26;3.17;;;2.87;;
11943;SDS011;6031;50.220;10.122;2023-08-06T03:02:52;2.80;;;2.60;;
11943;SDS011;6031;50.220;10.122;2023-08-06T03:05:18;2.70;;;2.50;;
11943;SDS011;6031;50.220;10.122;2023-08-06T03:07:44;4.57;;;3.03;;
11943;SDS011;6031;50.220;10.122;2023-08-06T03:10:09;3.63;;;2.97;;
11943;SDS011;6031;50.220;10.122;2023-08-06T03:12:35;4.03;;;3.10;;
11943;SDS011;6031;50.220;10.122;2023-08-06T03:15:00;3.40;;;3.10;;
11943;SDS011;6031;50.220;10.122;2023-08-06T03:17:26;3.67;;;3.37;;
11943;SDS011;6031;50.220;10.122;2023-08-06T03:19:52;3.23;;;2.93;;
11943;SDS011;6031;50.220;10.122;2023-08-06T03:22:17;5.07;;;3.10;;
11943;SDS011;6031;50.220;10.122;2023-08-06T03:24:43;2.70;;;2.50;;
11943;SDS011;6031;50.220;10.122;2023-08-06T03:27:08;3.73;;;2.93;;
11943;SDS011;6031;50.220;10.122;2023-08-06T03:29:34;2.80;;;2.60;;
11943;SDS011;6031;50.220;10.122;2023-08-06T03:31:59;5.70;;;3.00;;
11943;SDS011;6031;50.220;10.122;2023-08-06T03:34:24;2.90;;;2.70;;
11943;SDS011;6031;50.220;10.122;2023-08-06T03:36:50;3.40;;;3.10;;
11943;SDS011;6031;50.220;10.122;2023-08-06T03:39:15;3.40;;;3.10;;
11943;SDS011;6031;50.220;10.122;2023-08-06T03:41:41;3.00;;;2.80;;
11943;SDS011;6031;50.220;10.122;2023-08-06T03:44:07;6.07;;;3.20;;
11943;SDS011;6031;50.220;10.122;2023-08-06T03:46:32;3.77;;;3.10;;
11943;SDS011;6031;50.220;10.122;2023-08-06T03:48:59;3.60;;;3.23;;
11943;SDS011;6031;50.220;10.122;2023-08-06T03:51:25;3.83;;;3.50;;
11943;SDS011;6031;50.220;10.122;2023-08-06T03:53:50;4.53;;;3.53;;
11943;SDS011;6031;50.220;10.122;2023-08-06T03:56:16;3.00;;;2.80;;
11943;SDS011;6031;50.220;10.122;2023-08-06T03:58:41;8.57;;;3.07;;
11943;SDS011;6031;50.220;10.122;2023-08-06T04:01:07;4.70;;;3.67;;
11943;SDS011;6031;50.220;10.122;2023-08-06T04:03:32;4.53;;;3.57;;
11943;SDS011;6031;50.220;10.122;2023-08-06T04:05:58;4.93;;;3.50;;
11943;SDS011;6031;50.220;10.122;2023-08-06T04:08:23;2.93;;;2.73;;
11943;SDS011;6031;50.220;10.122;2023-08-06T04:10:49;3.50;;;3.00;;
11943;SDS011;6031;50.220;10.122;2023-08-06T04:13:17;4.10;;;3.70;;
11943;SDS011;6031;50.220;10.122;2023-08-06T04:15:42;3.07;;;2.87;;
11943;SDS011;6031;50.220;10.122;2023-08-06T04:18:08;3.30;;;3.00;;
11943;SDS011;6031;50.220;10.122;2023-08-06T04:20:33;3.80;;;3.50;;
11943;SDS011;6031;50.220;10.122;2023-08-06T04:22:59;3.90;;;3.60;;
11943;SDS011;6031;50.220;10.122;2023-08-06T04:25:30;4.20;;;3.90;;
11943;SDS011;6031;50.220;10.122;2023-08-06T04:27:56;4.17;;;3.50;;
11943;SDS011;6031;50.220;10.122;2023-08-06T04:30:21;4.10;;;3.70;;
11943;SDS011;6031;50.220;10.122;2023-08-06T04:32:47;4.13;;;3.53;;
11943;SDS011;6031;50.220;10.122;2023-08-06T04:35:14;4.20;;;3.80;;
11943;SDS011;6031;50.220;10.122;2023-08-06T04:37:40;4.43;;;3.30;;
11943;SDS011;6031;50.220;10.122;2023-08-06T04:40:05;4.60;;;3.70;;
11943;SDS011;6031;50.220;10.122;2023-08-06T04:42:31;3.07;;;2.87;;
11943;SDS011;6031;50.220;10.122;2023-08-06T04:44:57;5.47;;;4.13;;
11943;SDS011;6031;50.220;10.122;2023-08-06T04:47:22;4.30;;;3.90;;
11943;SDS011;6031;50.220;10.122;2023-08-06T04:49:48;4.93;;;3.63;;
11943;SDS011;6031;50.220;10.122;2023-08-06T04:52:13;3.73;;;3.27;;
11943;SDS011;6031;50.220;10.122;2023-08-06T04:54:39;3.13;;;2.93;;
11943;SDS011;6031;50.220;10.122;2023-08-06T04:57:04;4.33;;;3.97;;
11943;SDS011;6031;50.220;10.122;2023-08-06T04:59:30;3.53;;;3.23;;
11943;SDS011;6031;50.220;10.122;2023-08-06T05:01:56;3.70;;;3.40;;
11943;SDS011;6031;50.220;10.122;2023-08-06T05:04:21;4.43;;;2.97;;
11943;SDS011;6031;50.220;10.122;2023-08-06T05:06:47;3.77;;;3.47;;
11943;SDS011;6031;50.220;10.122;2023-08-06T05:09:13;3.57;;;3.27;;
11943;SDS011;6031;50.220;10.122;2023-08-06T05:11:38;3.60;;;3.23;;
11943;SDS011;6031;50.220;10.122;2023-08-06T05:14:04;3.63;;;3.33;;
11943;SDS011;6031;50.220;10.122;2023-08-06T05:16:29;2.33;;;2.13;;
11943;SDS011;6031;50.220;10.122;2023-08-06T05:18:55;4.50;;;2.90;;
11943;SDS011;6031;50.220;10.122;2023-08-06T05:21:20;4.47;;;3.13;;
11943;SDS011;6031;50.220;10.122;2023-08-06T05:23:46;6.03;;;2.73;;
11943;SDS011;6031;50.220;10.122;2023-08-06T05:26:11;3.23;;;2.93;;
11943;SDS011;6031;50.220;10.122;2023-08-06T05:28:39;2.37;;;2.17;;
11943;SDS011;6031;50.220;10.122;2023-08-06T05:31:06;2.80;;;2.60;;
11943;SDS011;6031;50.220;10.122;2023-08-06T05:33:31;2.60;;;2.40;;
11943;SDS011;6031;50.220;10.122;2023-08-06T05:35:57;2.50;;;2.20;;
11943;SDS011;6031;50.220;10.122;2023-08-06T05:38:23;2.83;;;2.10;;
11943;SDS011;6031;50.220;10.122;2023-08-06T05:40:49;1.97;;;1.83;;
11943;SDS011;6031;50.220;10.122;2023-08-06T05:43:14;2.57;;;2.37;;
11943;SDS011;6031;50.220;10.122;2023-08-06T05:45:43;4.43;;;2.20;;
11943;SDS011;6031;50.220;10.122;2023-08-06T05:48:10;2.30;;;2.07;;
11943;SDS011;6031;50.220;10.122;2023-08-06T05:50:35;1.73;;;1.63;;
11943;SDS011;6031;50.220;10.122;2023-08-06T05:53:01;1.70;;;1.60;;
11943;SDS011;6031;50.220;10.122;2023-08-06T05:55:26;1.77;;;1.67;;
11943;SDS011;6031;50.220;10.122;2023-08-06T05:57:52;3.00;;;2.70;;
11943;SDS011;6031;50.220;10.122;2023-08-06T06:00:18;1.60;;;1.30;;
11943;SDS011;6031;50.220;10.122;2023-08-06T06:02:44;1.60;;;1.50;;
11943;SDS011;6031;50.220;10.122;2023-08-06T06:05:10;1.40;;;1.30;;
11943;SDS011;6031;50.220;10.122;2023-08-06T06:07:36;2.47;;;2.37;;
11943;SDS011;6031;50.220;10.122;2023-08-06T06:10:01;3.17;;;2.97;;
11943;SDS011;6031;50.220;10.122;2023-08-06T06:12:27;2.73;;;2.53;;
11943;SDS011;6031;50.220;10.122;2023-08-06T06:14:52;3.57;;;2.40;;
11943;SDS011;6031;50.220;10.122;2023-08-06T06:17:18;13.63;;;12.60;;
11943;SDS011;6031;50.220;10.122;2023-08-06T06:19:43;2.50;;;2.40;;
11943;SDS011;6031;50.220;10.122;2023-08-06T06:22:09;3.43;;;1.50;;
11943;SDS011;6031;50.220;10.122;2023-08-06T06:24:34;2.80;;;2.60;;
11943;SDS011;6031;50.220;10.122;2023-08-06T06:27:00;4.37;;;3.67;;
11943;SDS011;6031;50.220;10.122;2023-08-06T06:29:26;4.73;;;1.77;;
11943;SDS011;6031;50.220;10.122;2023-08-06T06:31:51;5.10;;;4.70;;
11943;SDS011;6031;50.220;10.122;2023-08-06T06:34:17;3.57;;;3.13;;
11943;SDS011;6031;50.220;10.122;2023-08-06T06:36:42;2.20;;;2.10;;
11943;SDS011;6031;50.220;10.122;2023-08-06T06:39:08;3.00;;;2.03;;
11943;SDS011;6031;50.220;10.122;2023-08-06T06:41:33;2.60;;;1.83;;
11943;SDS011;6031;50.220;10.122;2023-08-06T06:43:59;2.67;;;2.47;;
11943;SDS011;6031;50.220;10.122;2023-08-06T06:46:24;5.40;;;2.53;;
11943;SDS011;6031;50.220;10.122;2023-08-06T06:48:50;3.63;;;3.33;;
11943;SDS011;6031;50.220;10.122;2023-08-06T06:51:15;2.70;;;2.50;;
11943;SDS011;6031;50.220;10.122;2023-08-06T06:53:41;2.30;;;2.00;;
11943;SDS011;6031;50.220;10.122;2023-08-06T06:56:06;2.43;;;2.23;;
11943;SDS011;6031;50.220;10.122;2023-08-06T06:58:32;4.40;;;4.00;;
11943;SDS011;6031;50.220;10.122;2023-08-06T07:00:57;3.03;;;2.83;;
11943;SDS011;6031;50.220;10.122;2023-08-06T07:03:23;2.80;;;1.90;;
11943;SDS011;6031;50.220;10.122;2023-08-06T07:05:49;2.53;;;2.33;;
11943;SDS011;6031;50.220;10.122;2023-08-06T07:08:15;1.87;;;1.77;;
11943;SDS011;6031;50.220;10.122;2023-08-06T07:10:40;4.27;;;2.10;;
11943;SDS011;6031;50.220;10.122;2023-08-06T07:13:07;2.37;;;2.17;;
11943;SDS011;6031;50.220;10.122;2023-08-06T07:15:33;1.83;;;1.43;;
11943;SDS011;6031;50.220;10.122;2023-08-06T07:17:59;1.70;;;1.60;;
11943;SDS011;6031;50.220;10.122;2023-08-06T07:20:24;2.00;;;1.83;;
11943;SDS011;6031;50.220;10.122;2023-08-06T07:22:50;1.83;;;1.63;;
11943;SDS011;6031;50.220;10.122;2023-08-06T07:25:16;2.93;;;1.47;;
11943;SDS011;6031;50.220;10.122;2023-08-06T07:27:41;1.73;;;1.63;;
11943;SDS011;6031;50.220;10.122;2023-08-06T07:30:07;2.03;;;1.93;;
11943;SDS011;6031;50.220;10.122;2023-08-06T07:32:33;3.77;;;2.80;;
11943;SDS011;6031;50.220;10.122;2023-08-06T07:34:59;3.93;;;1.80;;
11943;SDS011;6031;50.220;10.122;2023-08-06T07:37:25;2.90;;;2.60;;
11943;SDS011;6031;50.220;10.122;2023-08-06T07:39:53;3.17;;;2.00;;
11943;SDS011;6031;50.220;10.122;2023-08-06T07:42:19;2.43;;;1.53;;
11943;SDS011;6031;50.220;10.122;2023-08-06T07:44:54;2.27;;;2.13;;
11943;SDS011;6031;50.220;10.122;2023-08-06T07:47:21;1.63;;;1.50;;
11943;SDS011;6031;50.220;10.122;2023-08-06T07:49:47;2.07;;;1.87;;
11943;SDS011;6031;50.220;10.122;2023-08-06T07:52:13;4.33;;;1.83;;
11943;SDS011;6031;50.220;10.122;2023-08-06T07:54:38;2.20;;;2.00;;
11943;SDS011;6031;50.220;10.122;2023-08-06T07:57:04;1.90;;;1.80;;
11943;SDS011;6031;50.220;10.122;2023-08-06T07:59:30;2.20;;;1.60;;
11943;SDS011;6031;50.220;10.122;2023-08-06T08:01:55;3.53;;;2.00;;
11943;SDS011;6031;50.220;10.122;2023-08-06T08:04:21;2.90;;;1.80;;
11943;SDS011;6031;50.220;10.122;2023-08-06T08:06:46;1.60;;;1.50;;
11943;SDS011;6031;50.220;10.122;2023-08-06T08:09:12;4.30;;;1.83;;
11943;SDS011;6031;50.220;10.122;2023-08-06T08:11:39;1.80;;;1.27;;
11943;SDS011;6031;50.220;10.122;2023-08-06T08:14:05;1.83;;;1.73;;
11943;SDS011;6031;50.220;10.122;2023-08-06T08:16:30;1.90;;;1.77;;
11943;SDS011;6031;50.220;10.122;2023-08-06T08:18:56;2.37;;;1.60;;
11943;SDS011;6031;50.220;10.122;2023-08-06T08:21:22;1.50;;;1.40;;
11943;SDS011;6031;50.220;10.122;2023-08-06T08:23:49;2.10;;;1.67;;
11943;SDS011;6031;50.220;10.122;2023-08-06T08:26:15;1.40;;;1.03;;
11943;SDS011;6031;50.220;10.122;2023-08-06T08:28:40;1.27;;;1.00;;
11943;SDS011;6031;50.220;10.122;2023-08-06T08:31:09;1.53;;;0.90;;
11943;SDS011;6031;50.220;10.122;2023-08-06T08:33:36;1.47;;;0.97;;
11943;SDS011;6031;50.220;10.122;2023-08-06T08:36:02;1.17;;;0.97;;
11943;SDS011;6031;50.220;10.122;2023-08-06T08:38:27;1.63;;;1.37;;
11943;SDS011;6031;50.220;10.122;2023-08-06T08:40:53;1.40;;;1.23;;
11943;SDS011;6031;50.220;10.122;2023-08-06T08:43:20;0.87;;;0.87;;
11943;SDS011;6031;50.220;10.122;2023-08-06T08:45:47;3.90;;;1.10;;
11943;SDS011;6031;50.220;10.122;2023-08-06T08:48:16;2.17;;;1.27;;
11943;SDS011;6031;50.220;10.122;2023-08-06T08:50:44;0.87;;;0.87;;
11943;SDS011;6031;50.220;10.122;2023-08-06T08:53:11;2.40;;;1.00;;
11943;SDS011;6031;50.220;10.122;2023-08-06T08:55:39;1.17;;;1.13;;
11943;SDS011;6031;50.220;10.122;2023-08-06T08:58:05;0.70;;;0.70;;
11943;SDS011;6031;50.220;10.122;2023-08-06T09:00:30;1.97;;;0.87;;
11943;SDS011;6031;50.220;10.122;2023-08-06T09:02:56;1.50;;;0.70;;
11943;SDS011;6031;50.220;10.122;2023-08-06T09:05:24;1.80;;;0.80;;
11943;SDS011;6031;50.220;10.122;2023-08-06T09:07:53;0.40;;;0.40;;
11943;SDS011;6031;50.220;10.122;2023-08-06T09:10:20;1.30;;;0.50;;
11943;SDS011;6031;50.220;10.122;2023-08-06T09:12:48;0.53;;;0.43;;
11943;SDS011;6031;50.220;10.122;2023-08-06T09:15:16;0.60;;;0.60;;
11943;SDS011;6031;50.220;10.122;2023-08-06T09:17:41;0.70;;;0.70;;
11943;SDS011;6031;50.220;10.122;2023-08-06T09:20:10;1.40;;;1.10;;
11943;SDS011;6031;50.220;10.122;2023-08-06T09:22:39;1.13;;;0.60;;
11943;SDS011;6031;50.220;10.122;2023-08-06T09:25:06;0.73;;;0.73;;
11943;SDS011;6031;50.220;10.122;2023-08-06T09:27:37;0.70;;;0.70;;
11943;SDS011;6031;50.220;10.122;2023-08-06T09:30:04;0.40;;;0.40;;
11943;SDS011;6031;50.220;10.122;2023-08-06T09:32:44;0.60;;;0.60;;
11943;SDS011;6031;50.220;10.122;2023-08-06T09:35:15;0.30;;;0.30;;
11943;SDS011;6031;50.220;10.122;2023-08-06T09:37:42;0.67;;;0.50;;
11943;SDS011;6031;50.220;10.122;2023-08-06T09:42:56;0.30;;;0.30;;
11943;SDS011;6031;50.220;10.122;2023-08-06T09:45:22;0.50;;;0.50;;
11943;SDS011;6031;50.220;10.122;2023-08-06T09:47:55;0.20;;;0.20;;
11943;SDS011;6031;50.220;10.122;2023-08-06T09:50:22;0.60;;;0.60;;
11943;SDS011;6031;50.220;10.122;2023-08-06T09:52:48;0.30;;;0.30;;
11943;SDS011;6031;50.220;10.122;2023-08-06T09:55:15;0.20;;;0.20;;
11943;SDS011;6031;50.220;10.122;2023-08-06T09:57:41;0.57;;;0.47;;
11943;SDS011;6031;50.220;10.122;2023-08-06T10:00:08;0.63;;;0.37;;
11943;SDS011;6031;50.220;10.122;2023-08-06T10:02:35;0.10;;;0.10;;
11943;SDS011;6031;50.220;10.122;2023-08-06T10:05:02;0.77;;;0.50;;
11943;SDS011;6031;50.220;10.122;2023-08-06T10:07:29;1.67;;;0.50;;
11943;SDS011;6031;50.220;10.122;2023-08-06T10:09:55;0.40;;;0.40;;
11943;SDS011;6031;50.220;10.122;2023-08-06T10:12:21;0.77;;;0.40;;
11943;SDS011;6031;50.220;10.122;2023-08-06T10:14:50;0.20;;;0.10;;
11943;SDS011;6031;50.220;10.122;2023-08-06T10:17:18;0.63;;;0.40;;
11943;SDS011;6031;50.220;10.122;2023-08-06T10:19:44;0.17;;;0.17;;
11943;SDS011;6031;50.220;10.122;2023-08-06T10:27:29;0.30;;;0.30;;
11943;SDS011;6031;50.220;10.122;2023-08-06T10:32:49;1.07;;;0.80;;
11943;SDS011;6031;50.220;10.122;2023-08-06T10:38:15;0.23;;;0.23;;
11943;SDS011;6031;50.220;10.122;2023-08-06T10:43:29;1.27;;;1.17;;
11943;SDS011;6031;50.220;10.122;2023-08-06T10:45:59;0.30;;;0.30;;
11943;SDS011;6031;50.220;10.122;2023-08-06T10:48:37;1.40;;;1.30;;
11943;SDS011;6031;50.220;10.122;2023-08-06T10:51:07;0.50;;;0.50;;
11943;SDS011;6031;50.220;10.122;2023-08-06T10:53:34;0.97;;;0.97;;
11943;SDS011;6031;50.220;10.122;2023-08-06T10:56:00;0.57;;;0.57;;
11943;SDS011;6031;50.220;10.122;2023-08-06T10:58:30;0.43;;;0.30;;
11943;SDS011;6031;50.220;10.122;2023-08-06T11:00:56;0.40;;;0.40;;
11943;SDS011;6031;50.220;10.122;2023-08-06T11:03:22;0.53;;;0.53;;
11943;SDS011;6031;50.220;10.122;2023-08-06T11:05:48;0.33;;;0.33;;
11943;SDS011;6031;50.220;10.122;2023-08-06T11:08:27;0.30;;;0.30;;
11943;SDS011;6031;50.220;10.122;2023-08-06T11:10:54;0.40;;;0.40;;
11943;SDS011;6031;50.220;10.122;2023-08-06T11:13:20;0.73;;;0.40;;
11943;SDS011;6031;50.220;10.122;2023-08-06T11:15:46;0.80;;;0.80;;
11943;SDS011;6031;50.220;10.122;2023-08-06T11:18:12;1.20;;;1.10;;
11943;SDS011;6031;50.220;10.122;2023-08-06T11:20:38;0.83;;;0.83;;
11943;SDS011;6031;50.220;10.122;2023-08-06T11:23:04;0.70;;;0.70;;
11943;SDS011;6031;50.220;10.122;2023-08-06T11:25:30;0.60;;;0.60;;
11943;SDS011;6031;50.220;10.122;2023-08-06T11:28:00;1.13;;;0.80;;
11943;SDS011;6031;50.220;10.122;2023-08-06T11:30:26;0.50;;;0.50;;
11943;SDS011;6031;50.220;10.122;2023-08-06T11:32:52;0.70;;;0.70;;
11943;SDS011;6031;50.220;10.122;2023-08-06T11:35:17;4.07;;;3.53;;
11943;SDS011;6031;50.220;10.122;2023-08-06T11:37:43;0.73;;;0.60;;
11943;SDS011;6031;50.220;10.122;2023-08-06T11:40:10;4.37;;;3.10;;
11943;SDS011;6031;50.220;10.122;2023-08-06T11:42:37;2.43;;;2.00;;
11943;SDS011;6031;50.220;10.122;2023-08-06T11:45:03;1.67;;;1.57;;
11943;SDS011;6031;50.220;10.122;2023-08-06T11:47:29;1.43;;;1.30;;
11943;SDS011;6031;50.220;10.122;2023-08-06T11:49:55;1.60;;;0.57;;
11943;SDS011;6031;50.220;10.122;2023-08-06T11:52:22;0.70;;;0.60;;
11943;SDS011;6031;50.220;10.122;2023-08-06T11:55:09;0.30;;;0.30;;
11943;SDS011;6031;50.220;10.122;2023-08-06T11:57:39;1.83;;;0.43;;
11943;SDS011;6031;50.220;10.122;2023-08-06T12:02:36;0.93;;;0.27;;
11943;SDS011;6031;50.220;10.122;2023-08-06T12:05:13;0.40;;;0.37;;
11943;SDS011;6031;50.220;10.122;2023-08-06T12:07:46;0.60;;;0.60;;
11943;SDS011;6031;50.220;10.122;2023-08-06T12:10:14;0.30;;;0.30;;
11943;SDS011;6031;50.220;10.122;2023-08-06T12:12:40;0.30;;;0.20;;
11943;SDS011;6031;50.220;10.122;2023-08-06T12:15:06;0.23;;;0.23;;
11943;SDS011;6031;50.220;10.122;2023-08-06T12:17:33;0.47;;;0.40;;
11943;SDS011;6031;50.220;10.122;2023-08-06T12:19:59;0.43;;;0.30;;
11943;SDS011;6031;50.220;10.122;2023-08-06T12:22:24;0.40;;;0.40;;
11943;SDS011;6031;50.220;10.122;2023-08-06T12:24:50;0.40;;;0.40;;
11943;SDS011;6031;50.220;10.122;2023-08-06T12:27:16;0.33;;;0.30;;
11943;SDS011;6031;50.220;10.122;2023-08-06T12:29:42;0.20;;;0.20;;
11943;SDS011;6031;50.220;10.122;2023-08-06T12:32:09;0.47;;;0.47;;
11943;SDS011;6031;50.220;10.122;2023-08-06T12:34:35;0.20;;;0.20;;
11943;SDS011;6031;50.220;10.122;2023-08-06T12:37:02;0.37;;;0.37;;
11943;SDS011;6031;50.220;10.122;2023-08-06T12:39:28;0.40;;;0.30;;
11943;SDS011;6031;50.220;10.122;2023-08-06T12:41:54;0.30;;;0.30;;
11943;SDS011;6031;50.220;10.122;2023-08-06T12:44:22;0.20;;;0.20;;
11943;SDS011;6031;50.220;10.122;2023-08-06T12:46:48;2.23;;;0.10;;
11943;SDS011;6031;50.220;10.122;2023-08-06T12:49:13;0.37;;;0.37;;
11943;SDS011;6031;50.220;10.122;2023-08-06T12:51:39;0.50;;;0.20;;
11943;SDS011;6031;50.220;10.122;2023-08-06T12:54:04;0.10;;;0.10;;
11943;SDS011;6031;50.220;10.122;2023-08-06T12:56:30;0.47;;;0.47;;
11943;SDS011;6031;50.220;10.122;2023-08-06T12:58:55;1.03;;;0.30;;
11943;SDS011;6031;50.220;10.122;2023-08-06T13:01:21;0.47;;;0.43;;
11943;SDS011;6031;50.220;10.122;2023-08-06T13:03:46;0.43;;;0.43;;
11943;SDS011;6031;50.220;10.122;2023-08-06T13:06:12;0.30;;;0.30;;
11943;SDS011;6031;50.220;10.122;2023-08-06T13:08:37;0.27;;;0.27;;
11943;SDS011;6031;50.220;10.122;2023-08-06T13:11:04;0.20;;;0.20;;
11943;SDS011;6031;50.220;10.122;2023-08-06T13:13:30;0.30;;;0.30;;
11943;SDS011;6031;50.220;10.122;2023-08-06T13:15:55;0.20;;;0.20;;
11943;SDS011;6031;50.220;10.122;2023-08-06T13:18:21;1.83;;;0.40;;
11943;SDS011;6031;50.220;10.122;2023-08-06T13:20:47;0.30;;;0.30;;
11943;SDS011;6031;50.220;10.122;2023-08-06T13:23:14;0.53;;;0.43;;
11943;SDS011;6031;50.220;10.122;2023-08-06T13:25:41;1.77;;;0.30;;
11943;SDS011;6031;50.220;10.122;2023-08-06T13:28:07;0.30;;;0.30;;
11943;SDS011;6031;50.220;10.122;2023-08-06T13:30:33;0.30;;;0.30;;
11943;SDS011;6031;50.220;10.122;2023-08-06T13:33:00;0.83;;;0.80;;
11943;SDS011;6031;50.220;10.122;2023-08-06T13:35:26;0.43;;;0.30;;
11943;SDS011;6031;50.220;10.122;2023-08-06T13:37:52;0.40;;;0.37;;
11943;SDS011;6031;50.220;10.122;2023-08-06T13:40:17;0.43;;;0.43;;
11943;SDS011;6031;50.220;10.122;2023-08-06T13:42:43;0.97;;;0.40;;
11943;SDS011;6031;50.220;10.122;2023-08-06T13:45:09;0.77;;;0.30;;
11943;SDS011;6031;50.220;10.122;2023-08-06T13:47:34;1.80;;;0.50;;
11943;SDS011;6031;50.220;10.122;2023-08-06T13:50:00;0.10;;;0.10;;
11943;SDS011;6031;50.220;10.122;2023-08-06T13:52:26;0.30;;;0.30;;
11943;SDS011;6031;50.220;10.122;2023-08-06T13:54:52;0.57;;;0.40;;
11943;SDS011;6031;50.220;10.122;2023-08-06T13:57:17;0.40;;;0.40;;
11943;SDS011;6031;50.220;10.122;2023-08-06T13:59:43;0.30;;;0.30;;
11943;SDS011;6031;50.220;10.122;2023-08-06T14:02:09;0.20;;;0.20;;
11943;SDS011;6031;50.220;10.122;2023-08-06T14:04:35;0.50;;;0.37;;
11943;SDS011;6031;50.220;10.122;2023-08-06T14:07:02;0.77;;;0.37;;
11943;SDS011;6031;50.220;10.122;2023-08-06T14:09:28;0.20;;;0.20;;
11943;SDS011;6031;50.220;10.122;2023-08-06T14:11:53;2.27;;;0.20;;
11943;SDS011;6031;50.220;10.122;2023-08-06T14:14:19;0.83;;;0.67;;
11943;SDS011;6031;50.220;10.122;2023-08-06T14:16:50;0.60;;;0.30;;
11943;SDS011;6031;50.220;10.122;2023-08-06T14:19:19;0.20;;;0.10;;
11943;SDS011;6031;50.220;10.122;2023-08-06T14:21:45;0.10;;;0.10;;
11943;SDS011;6031;50.220;10.122;2023-08-06T14:24:11;0.30;;;0.30;;
11943;SDS011;6031;50.220;10.122;2023-08-06T14:26:36;0.37;;;0.37;;
11943;SDS011;6031;50.220;10.122;2023-08-06T14:29:02;0.10;;;0.07;;
11943;SDS011;6031;50.220;10.122;2023-08-06T14:31:28;0.63;;;0.50;;
11943;SDS011;6031;50.220;10.122;2023-08-06T14:33:53;1.30;;;0.13;;
11943;SDS011;6031;50.220;10.122;2023-08-06T14:36:19;0.20;;;0.20;;
11943;SDS011;6031;50.220;10.122;2023-08-06T14:38:44;0.20;;;0.10;;
11943;SDS011;6031;50.220;10.122;2023-08-06T14:41:10;0.10;;;0.10;;
11943;SDS011;6031;50.220;10.122;2023-08-06T14:43:36;0.73;;;0.40;;
11943;SDS011;6031;50.220;10.122;2023-08-06T14:46:01;2.83;;;0.20;;
11943;SDS011;6031;50.220;10.122;2023-08-06T14:48:28;0.20;;;0.20;;
11943;SDS011;6031;50.220;10.122;2023-08-06T14:50:54;1.13;;;0.20;;
11943;SDS011;6031;50.220;10.122;2023-08-06T14:53:19;0.10;;;0.10;;
11943;SDS011;6031;50.220;10.122;2023-08-06T14:55:45;0.50;;;0.20;;
11943;SDS011;6031;50.220;10.122;2023-08-06T14:58:11;0.43;;;0.20;;
11943;SDS011;6031;50.220;10.122;2023-08-06T15:00:36;0.07;;;0.00;;
11943;SDS011;6031;50.220;10.122;2023-08-06T15:03:02;0.43;;;0.10;;
11943;SDS011;6031;50.220;10.122;2023-08-06T15:05:27;0.00;;;0.00;;
11943;SDS011;6031;50.220;10.122;2023-08-06T15:07:53;0.03;;;0.03;;
11943;SDS011;6031;50.220;10.122;2023-08-06T15:10:18;0.40;;;0.10;;